Time;durP1;ratioP1;P1;durP2;ratioP2;P2;SDS_P1;SDS_P2;PMS_P1;PMS_P2;Temp;Humidity;BMP_temperature;BMP_pressure;BME280_temperature;BME280_humidity;BME280_pressure;Samples;Min_cycle;Max_cycle;Signal;HPM_P1;HPM_P2
2022/03/21 00:02:05;;;;;;;0.95;0.95;;;;;;;-143.85;100.00;70650.75;5034352;28;20029;-78
2022/03/21 00:04:31;;;;;;;2.10;2.00;;;;;;;-143.85;100.00;70650.75;5034315;28;20092;-78
2022/03/21 00:06:57;;;;;;;0.40;0.40;;;;;;;-143.85;100.00;70650.75;5034565;28;20071;-77
2022/03/21 00:09:22;;;;;;;0.88;0.88;;;;;;;-143.85;100.00;70650.75;5034200;28;20021;-76
2022/03/21 00:11:50;;;;;;;0.50;0.50;;;;;;;-143.85;100.00;70650.75;5035540;28;20492;-76
2022/03/21 00:14:16;;;;;;;1.02;1.02;;;;;;;-143.85;100.00;70650.75;5034350;28;20018;-77
2022/03/21 00:16:41;;;;;;;0.82;0.82;;;;;;;-143.85;100.00;70650.75;5034551;28;20075;-77
2022/03/21 00:19:07;;;;;;;0.68;0.68;;;;;;;-143.85;100.00;70650.75;5034516;28;20022;-78
2022/03/21 00:21:34;;;;;;;0.65;0.65;;;;;;;-143.85;100.00;70650.75;5035361;28;20104;-79
2022/03/21 00:24:01;;;;;;;1.00;1.00;;;;;;;-143.85;100.00;70650.75;5033994;28;20026;-78
2022/03/21 00:26:27;;;;;;;0.32;0.32;;;;;;;-143.85;100.00;70650.75;5033945;28;20083;-79
2022/03/21 00:28:52;;;;;;;0.30;0.30;;;;;;;-143.85;100.00;70650.75;5033359;28;20447;-78
2022/03/21 00:31:18;;;;;;;1.20;1.20;;;;;;;-143.85;100.00;70650.75;5034357;28;20031;-77
2022/03/21 00:33:43;;;;;;;3.03;0.95;;;;;;;-143.85;100.00;70650.75;5034541;28;20018;-78
2022/03/21 00:36:08;;;;;;;0.82;0.82;;;;;;;-143.85;100.00;70650.75;5034281;28;20371;-77
2022/03/21 00:38:38;;;;;;;2.72;1.88;;;;;;;-143.85;100.00;70650.75;5033822;28;20021;-78
2022/03/21 00:41:07;;;;;;;0.47;0.47;;;;;;;-143.85;100.00;70650.75;5034341;28;20441;-78
2022/03/21 00:43:33;;;;;;;0.65;0.65;;;;;;;-143.85;100.00;70650.75;5033682;28;20024;-77
2022/03/21 00:46:00;;;;;;;1.85;1.75;;;;;;;-143.85;100.00;70650.75;5035122;28;20051;-78
2022/03/21 00:48:27;;;;;;;0.70;0.70;;;;;;;-143.85;100.00;70650.75;5034348;28;20072;-77
2022/03/21 00:50:54;;;;;;;2.10;1.38;;;;;;;-143.85;100.00;70650.75;5033728;28;20026;-77
2022/03/21 00:53:20;;;;;;;0.43;0.43;;;;;;;-143.85;100.00;70650.75;5034117;28;20036;-76
2022/03/21 00:55:47;;;;;;;0.47;0.47;;;;;;;-143.85;100.00;70650.75;5033604;28;20076;-76
2022/03/21 00:58:13;;;;;;;2.77;1.80;;;;;;;-143.85;100.00;70650.75;5032959;28;20045;-76
2022/03/21 01:00:39;;;;;;;1.67;1.45;;;;;;;-143.85;100.00;70650.75;5033596;28;20484;-77
2022/03/21 01:03:04;;;;;;;0.50;0.50;;;;;;;-143.85;100.00;70650.75;5033344;28;20508;-77
2022/03/21 01:05:30;;;;;;;0.40;0.40;;;;;;;-143.85;100.00;70650.75;5033079;28;20030;-78
2022/03/21 01:07:57;;;;;;;1.00;0.60;;;;;;;-143.85;100.00;70650.75;5033489;28;20033;-78
2022/03/21 01:10:24;;;;;;;0.50;0.50;;;;;;;-143.85;100.00;70650.75;5033188;28;20115;-78
2022/03/21 01:12:50;;;;;;;0.30;0.30;;;;;;;-143.85;100.00;70650.75;5033262;28;20025;-79
2022/03/21 01:15:17;;;;;;;0.60;0.60;;;;;;;-143.85;100.00;70650.75;5033392;28;20116;-79
2022/03/21 01:17:44;;;;;;;0.60;0.60;;;;;;;-143.85;100.00;70650.75;5033247;28;20017;-79
2022/03/21 01:20:12;;;;;;;0.60;0.60;;;;;;;-143.85;100.00;70650.75;5034125;28;20039;-80
2022/03/21 01:22:37;;;;;;;1.33;1.33;;;;;;;-143.85;100.00;70650.75;5033080;28;20035;-78
2022/03/21 01:25:03;;;;;;;0.80;0.80;;;;;;;-143.85;100.00;70650.75;5033044;28;20021;-80
2022/03/21 01:27:29;;;;;;;1.23;1.23;;;;;;;-143.85;100.00;70650.75;5032943;28;20036;-78
2022/03/21 01:29:55;;;;;;;0.63;0.63;;;;;;;-143.85;100.00;70650.75;5033088;28;20079;-78
2022/03/21 01:32:21;;;;;;;0.60;0.60;;;;;;;-143.85;100.00;70650.75;5032943;28;20044;-80
2022/03/21 01:34:47;;;;;;;0.52;0.47;;;;;;;-143.85;100.00;70650.75;5032925;28;20469;-78
2022/03/21 01:37:12;;;;;;;1.05;0.50;;;;;;;-143.85;100.00;70650.75;5032673;28;20017;-79
2022/03/21 01:39:38;;;;;;;0.40;0.40;;;;;;;-143.85;100.00;70650.75;5032809;28;20451;-79
2022/03/21 01:42:04;;;;;;;1.08;1.08;;;;;;;-143.85;100.00;70650.75;5032029;28;20029;-80
2022/03/21 01:44:29;;;;;;;0.60;0.60;;;;;;;-143.85;100.00;70650.75;5032747;28;20025;-82
2022/03/21 01:46:55;;;;;;;0.63;0.63;;;;;;;-143.85;100.00;70650.75;5032289;28;20396;-79
2022/03/21 01:49:20;;;;;;;1.00;0.98;;;;;;;-143.85;100.00;70650.75;5034344;28;20114;-78
2022/03/21 01:51:46;;;;;;;1.08;1.08;;;;;;;-143.85;100.00;70650.75;5032195;28;20171;-78
2022/03/21 01:56:56;;;;;;;1.02;1.02;;;;;;;-143.85;100.00;70650.75;5033713;28;20188;-79
2022/03/21 01:59:22;;;;;;;1.13;0.95;;;;;;;-143.85;100.00;70650.75;5032134;28;20116;-80
2022/03/21 02:01:49;;;;;;;0.75;0.75;;;;;;;-143.85;100.00;70650.75;5032296;28;20029;-78
2022/03/21 02:04:15;;;;;;;1.13;1.13;;;;;;;-143.85;100.00;70650.75;5032958;28;20171;-79
2022/03/21 02:06:45;;;;;;;0.90;0.90;;;;;;;-143.85;100.00;70650.75;5032166;28;20295;-77
2022/03/21 02:09:11;;;;;;;2.58;1.98;;;;;;;-143.85;100.00;70650.75;5032032;28;20029;-77
2022/03/21 02:11:38;;;;;;;1.23;1.23;;;;;;;-143.85;100.00;70650.75;5031919;28;20088;-76
2022/03/21 02:14:06;;;;;;;0.60;0.60;;;;;;;-143.85;100.00;70650.75;5032151;28;20531;-78
2022/03/21 02:16:33;;;;;;;0.57;0.57;;;;;;;-143.85;100.00;70650.75;5032676;28;20091;-77
2022/03/21 02:19:03;;;;;;;0.40;0.40;;;;;;;-143.85;100.00;70650.75;5032121;28;20366;-76
2022/03/21 02:21:37;;;;;;;2.28;1.70;;;;;;;-143.85;100.00;70650.75;5032053;28;20442;-77
2022/03/21 02:24:09;;;;;;;0.80;0.80;;;;;;;-143.85;100.00;70650.75;5032124;28;20083;-77
2022/03/21 02:26:36;;;;;;;0.30;0.30;;;;;;;-143.85;100.00;70650.75;5032443;28;20022;-77
2022/03/21 02:29:02;;;;;;;0.90;0.90;;;;;;;-143.85;100.00;70650.75;5031729;28;20453;-77
2022/03/21 02:31:28;;;;;;;0.90;0.90;;;;;;;-143.85;100.00;70650.75;5031583;28;20083;-79
2022/03/21 02:33:54;;;;;;;2.25;1.25;;;;;;;-143.85;100.00;70650.75;5031589;28;20447;-78
2022/03/21 02:36:21;;;;;;;0.40;0.40;;;;;;;-143.85;100.00;70650.75;5032010;28;20465;-77
2022/03/21 02:38:47;;;;;;;0.40;0.40;;;;;;;-143.85;100.00;70650.75;5031484;28;20048;-77
2022/03/21 02:41:15;;;;;;;0.30;0.30;;;;;;;-143.85;100.00;70650.75;5032850;28;20428;-77
2022/03/21 02:43:51;;;;;;;;;;;;;;;-143.85;100.00;70650.75;5031975;28;20036;-77
2022/03/21 02:46:17;;;;;;;0.50;0.50;;;;;;;-143.85;100.00;70650.75;5031430;28;19913;-78
2022/03/21 02:48:47;;;;;;;0.38;0.38;;;;;;;-143.85;100.00;70650.75;5031275;28;20025;-77
2022/03/21 02:51:13;;;;;;;1.65;1.55;;;;;;;-143.85;100.00;70650.75;5031743;28;20029;-78
2022/03/21 02:53:40;;;;;;;0.40;0.40;;;;;;;-143.85;100.00;70650.75;5031742;28;20021;-77
2022/03/21 02:56:05;;;;;;;0.30;0.30;;;;;;;-143.85;100.00;70650.75;5030619;28;20081;-77
2022/03/21 02:58:31;;;;;;;1.20;1.13;;;;;;;-143.85;100.00;70650.75;5031756;28;20018;-77
2022/03/21 03:01:10;;;;;;;0.60;0.60;;;;;;;-143.85;100.00;70650.75;5032727;28;20367;-76
2022/03/21 03:03:36;;;;;;;0.68;0.68;;;;;;;-143.85;100.00;70650.75;5031095;28;20024;-77
2022/03/21 03:06:02;;;;;;;0.68;0.68;;;;;;;-143.85;100.00;70650.75;5032666;28;20490;-77
2022/03/21 03:08:29;;;;;;;1.05;1.05;;;;;;;-143.85;100.00;70650.75;5031212;28;20044;-76
2022/03/21 03:10:54;;;;;;;0.55;0.55;;;;;;;-143.85;100.00;70650.75;5031037;28;20078;-76
2022/03/21 03:13:20;;;;;;;1.60;1.50;;;;;;;-143.85;100.00;70650.75;5032669;28;20396;-78
2022/03/21 03:15:47;;;;;;;0.75;0.70;;;;;;;-143.85;100.00;70650.75;5031152;28;20026;-77
2022/03/21 03:18:13;;;;;;;0.63;0.63;;;;;;;-143.85;100.00;70650.75;5031022;28;20018;-78
2022/03/21 03:20:50;;;;;;;1.23;1.23;;;;;;;-143.85;100.00;70650.75;5031695;28;20048;-77
2022/03/21 03:23:20;;;;;;;0.47;0.47;;;;;;;-143.85;100.00;70650.75;5032388;28;20473;-78
2022/03/21 03:25:46;;;;;;;0.40;0.40;;;;;;;-143.85;100.00;70650.75;5031422;28;20060;-78
2022/03/21 03:28:13;;;;;;;1.13;1.13;;;;;;;-143.85;100.00;70650.75;5031009;28;20124;-78
2022/03/21 03:30:39;;;;;;;4.95;3.35;;;;;;;-143.85;100.00;70650.75;5030976;28;20021;-78
2022/03/21 03:33:05;;;;;;;1.15;1.15;;;;;;;-143.85;100.00;70650.75;5031044;28;20051;-81
2022/03/21 03:35:30;;;;;;;0.50;0.50;;;;;;;-143.85;100.00;70650.75;5030924;28;20025;-78
2022/03/21 03:37:56;;;;;;;1.65;1.55;;;;;;;-143.85;100.00;70650.75;5030841;28;20025;-77
2022/03/21 03:40:21;;;;;;;0.57;0.57;;;;;;;-143.85;100.00;70650.75;5030825;28;20108;-78
2022/03/21 03:42:47;;;;;;;3.00;2.63;;;;;;;-143.85;100.00;70650.75;5030915;28;20126;-77
2022/03/21 03:45:13;;;;;;;1.00;1.00;;;;;;;-143.85;100.00;70650.75;5030906;28;20044;-77
2022/03/21 03:47:39;;;;;;;0.30;0.30;;;;;;;-143.85;100.00;70650.75;5031974;28;20544;-78
2022/03/21 03:50:05;;;;;;;1.67;1.55;;;;;;;-143.85;100.00;70650.75;5030805;28;20113;-77
2022/03/21 03:52:31;;;;;;;0.63;0.63;;;;;;;-143.85;100.00;70650.75;5031214;28;20115;-78
2022/03/21 03:54:56;;;;;;;1.35;1.35;;;;;;;-143.85;100.00;70650.75;5030446;28;20477;-77
2022/03/21 03:57:22;;;;;;;3.92;0.77;;;;;;;-143.85;100.00;70650.75;5032029;28;20046;-85
2022/03/21 03:59:48;;;;;;;0.75;0.75;;;;;;;-143.85;100.00;70650.75;5030920;28;20397;-76
2022/03/21 04:02:13;;;;;;;3.83;1.15;;;;;;;-143.85;100.00;70650.75;5030315;28;20393;-77
2022/03/21 04:04:38;;;;;;;0.63;0.63;;;;;;;-143.85;100.00;70650.75;5032445;28;20031;-76
2022/03/21 04:07:04;;;;;;;0.60;0.60;;;;;;;-143.85;100.00;70650.75;5034258;28;20029;-78
2022/03/21 04:09:29;;;;;;;0.30;0.30;;;;;;;-143.85;100.00;70650.75;5034273;28;20018;-77
2022/03/21 04:11:55;;;;;;;0.32;0.32;;;;;;;-143.85;100.00;70650.75;5033964;28;20022;-76
2022/03/21 04:14:20;;;;;;;0.52;0.52;;;;;;;-143.85;100.00;70650.75;5034233;28;20029;-75
2022/03/21 04:16:46;;;;;;;1.02;1.00;;;;;;;-143.85;100.00;70650.75;5033986;28;20107;-77
2022/03/21 04:19:13;;;;;;;0.68;0.68;;;;;;;-143.85;100.00;70650.75;5034063;28;20386;-76
2022/03/21 04:21:39;;;;;;;2.53;2.33;;;;;;;-143.85;100.00;70650.75;5033623;28;20438;-76
2022/03/21 04:24:05;;;;;;;0.30;0.30;;;;;;;-143.85;100.00;70650.75;5033851;28;20028;-75
2022/03/21 04:26:31;;;;;;;1.65;1.55;;;;;;;-143.85;100.00;70650.75;5033762;28;20124;-76
2022/03/21 04:28:56;;;;;;;0.50;0.50;;;;;;;-143.85;100.00;70650.75;5033835;28;20108;-75
2022/03/21 04:31:23;;;;;;;10.88;1.95;;;;;;;-143.85;100.00;70650.75;5033538;28;20017;-75
2022/03/21 04:33:48;;;;;;;1.25;1.25;;;;;;;-143.85;100.00;70650.75;5033744;28;20029;-76
2022/03/21 04:36:14;;;;;;;1.00;1.00;;;;;;;-143.85;100.00;70650.75;5033802;28;20091;-75
2022/03/21 08:07:55;;;;;;;1.73;1.48;;;;;;;;;;5120659;27;1410188;-79
2022/03/21 08:10:22;;;;;;;1.38;1.27;;;;;;;;;;5150559;27;20030;-77
2022/03/21 08:12:47;;;;;;;2.05;1.30;;;;;;;;;;5132153;27;20113;-77
2022/03/21 08:15:14;;;;;;;3.42;1.73;;;;;;;;;;5150892;27;20053;-79
2022/03/21 08:17:52;;;;;;;0.68;0.45;;;;;;;;;;5132442;27;20026;-80
2022/03/21 08:20:19;;;;;;;1.30;1.20;;;;;;;;;;5132660;27;20026;-77
2022/03/21 08:22:44;;;;;;;1.45;1.35;;;;;;;;;;5132180;27;20027;-77
2022/03/21 08:25:09;;;;;;;1.83;1.73;;;;;;;;;;5132083;27;20355;-78
2022/03/21 08:27:36;;;;;;;0.95;0.93;;;;;;;;;;5150748;27;20283;-77
2022/03/21 08:30:01;;;;;;;2.50;2.22;;;;;;;;;;5132395;27;20454;-78
